createdAt,value
2019-04-07T00:01:20.682Z,8.40
2019-04-07T00:03:49.513Z,8.40
2019-04-07T00:06:18.159Z,8.40
2019-04-07T00:08:47.524Z,8.40
2019-04-07T00:11:17.451Z,8.40
2019-04-07T00:13:45.933Z,8.40
2019-04-07T00:16:14.594Z,8.40
2019-04-07T00:18:43.211Z,8.40
2019-04-07T00:21:12.490Z,8.40
2019-04-07T00:23:41.748Z,8.40
2019-04-07T00:26:10.081Z,8.40
2019-04-07T00:28:39.787Z,8.40
2019-04-07T00:31:09.532Z,8.40
2019-04-07T00:33:38.174Z,8.40
2019-04-07T00:36:07.355Z,8.40
2019-04-07T00:38:36.212Z,8.40
2019-04-07T00:41:05.633Z,8.40
2019-04-07T00:43:35.163Z,8.40
2019-04-07T00:46:04.586Z,8.40
2019-04-07T00:48:33.327Z,8.30
2019-04-07T00:51:02.045Z,8.30
2019-04-07T00:53:30.958Z,8.30
2019-04-07T00:56:00.477Z,8.30
2019-04-07T00:58:30.376Z,8.30
2019-04-07T01:00:59.026Z,8.20
2019-04-07T01:03:27.730Z,8.20
2019-04-07T01:05:56.446Z,8.20
2019-04-07T01:08:25.095Z,8.20
2019-04-07T01:10:53.775Z,8.10
2019-04-07T01:13:22.189Z,8.10
2019-04-07T01:15:51.089Z,8.10
2019-04-07T01:18:19.604Z,8.10
2019-04-07T01:20:48.415Z,8.10
2019-04-07T01:23:17.034Z,8.10
2019-04-07T01:25:45.698Z,8.10
2019-04-07T01:28:14.765Z,8.10
2019-04-07T01:30:43.664Z,8.10
2019-04-07T01:33:12.741Z,8.10
2019-04-07T01:35:48.315Z,8.10
2019-04-07T01:38:12.564Z,8.10
2019-04-07T01:40:42.810Z,8.10
2019-04-07T01:43:21.703Z,8.00
2019-04-07T01:46:11.136Z,8.00
2019-04-07T01:49:18.383Z,8.00
2019-04-07T01:51:59.628Z,8.00
2019-04-07T01:54:50.034Z,8.00
2019-04-07T01:57:33.889Z,8.00
2019-04-07T02:00:28.001Z,8.00
2019-04-07T02:03:03.373Z,8.00
2019-04-07T02:05:58.446Z,8.00
2019-04-07T02:08:36.345Z,8.00
2019-04-07T02:11:23.282Z,8.00
2019-04-07T02:14:30.285Z,8.00
2019-04-07T02:17:30.339Z,8.00
2019-04-07T02:20:20.899Z,8.00
2019-04-07T02:23:13.248Z,8.00
2019-04-07T02:26:06.046Z,8.00
2019-04-07T02:28:41.790Z,8.00
2019-04-07T02:31:24.944Z,8.00
2019-04-07T02:34:27.659Z,8.00
2019-04-07T02:37:04.666Z,8.00
2019-04-07T02:39:42.174Z,8.00
2019-04-07T02:42:43.660Z,8.00
2019-04-07T02:45:34.702Z,8.00
2019-04-07T02:48:26.480Z,8.00
2019-04-07T02:51:17.973Z,8.00
2019-04-07T02:54:09.325Z,8.00
2019-04-07T02:56:50.816Z,8.00
2019-04-07T02:59:31.171Z,8.00
2019-04-07T03:02:18.181Z,8.00
2019-04-07T03:05:02.432Z,8.00
2019-04-07T03:07:50.963Z,8.00
2019-04-07T03:10:38.836Z,8.00
2019-04-07T03:13:35.755Z,8.00
2019-04-07T03:16:31.216Z,8.10
2019-04-07T03:19:08.787Z,8.10
2019-04-07T03:21:54.266Z,8.10
2019-04-07T03:24:51.682Z,8.10
2019-04-07T03:27:29.038Z,8.10
2019-04-07T03:30:20.776Z,8.10
2019-04-07T03:33:28.468Z,8.10
2019-04-07T03:36:23.211Z,8.10
2019-04-07T03:39:04.349Z,8.10
2019-04-07T03:41:47.642Z,8.10
2019-04-07T03:44:22.932Z,8.10
2019-04-07T03:47:09.168Z,8.10
2019-04-07T03:49:49.693Z,8.10
2019-04-07T03:52:37.852Z,8.10
2019-04-07T03:55:35.211Z,8.10
2019-04-07T03:58:26.137Z,8.10
2019-04-07T04:01:22.313Z,8.10
2019-04-07T04:04:13.741Z,8.10
2019-04-07T04:07:16.435Z,8.20
2019-04-07T04:09:39.112Z,8.20
2019-04-07T04:12:35.713Z,8.20
2019-04-07T04:15:10.566Z,8.20
2019-04-07T04:17:39.220Z,8.20
2019-04-07T04:20:08.402Z,8.20
2019-04-07T04:22:37.865Z,8.20
2019-04-07T04:25:06.809Z,8.20
2019-04-07T04:27:36.745Z,8.20
2019-04-07T04:30:07.107Z,8.30
2019-04-07T04:32:35.593Z,8.30
2019-04-07T04:35:04.592Z,8.30
2019-04-07T04:37:41.817Z,8.30
2019-04-07T04:40:05.029Z,8.30
2019-04-07T04:42:33.954Z,8.30
2019-04-07T04:45:02.681Z,8.30
2019-04-07T04:47:31.116Z,8.30
2019-04-07T04:49:59.856Z,8.30
2019-04-07T04:52:29.615Z,8.30
2019-04-07T04:54:58.337Z,8.30
2019-04-07T04:57:27.158Z,8.30
2019-04-07T04:59:56.018Z,8.30
2019-04-07T05:02:25.767Z,8.30
2019-04-07T05:04:54.342Z,8.30
2019-04-07T05:07:23.040Z,8.30
2019-04-07T05:09:54.204Z,8.30
2019-04-07T05:12:22.062Z,8.30
2019-04-07T05:14:50.392Z,8.30
2019-04-07T05:17:19.087Z,8.40
2019-04-07T05:19:47.787Z,8.40
2019-04-07T05:22:16.692Z,8.40
2019-04-07T05:24:45.513Z,8.40
2019-04-07T05:27:13.988Z,8.40
2019-04-07T05:29:42.587Z,8.40
2019-04-07T05:32:11.291Z,8.40
2019-04-07T05:34:40.236Z,8.40
2019-04-07T05:37:08.761Z,8.40
2019-04-07T05:39:37.259Z,8.40
2019-04-07T05:42:06.060Z,8.40
2019-04-07T05:44:35.550Z,8.40
2019-04-07T05:47:04.140Z,8.40
2019-04-07T05:49:33.449Z,8.40
2019-04-07T05:52:05.266Z,8.40
2019-04-07T05:54:32.858Z,8.40
2019-04-07T05:57:02.533Z,8.40
2019-04-07T05:59:31.883Z,8.40
2019-04-07T06:02:07.045Z,8.50
2019-04-07T06:04:44.267Z,8.50
2019-04-07T06:07:20.271Z,8.50
2019-04-07T06:10:06.961Z,8.50
2019-04-07T06:12:48.341Z,8.50
2019-04-07T06:15:24.712Z,8.50
2019-04-07T06:18:03.012Z,8.40
2019-04-07T06:20:38.211Z,8.50
2019-04-07T06:23:13.815Z,8.50
2019-04-07T06:25:50.109Z,8.50
2019-04-07T06:28:23.783Z,8.50
2019-04-07T06:30:59.450Z,8.40
2019-04-07T06:33:31.967Z,8.40
2019-04-07T06:36:06.817Z,8.50
2019-04-07T06:38:43.289Z,8.50
2019-04-07T06:41:18.865Z,8.50
2019-04-07T06:43:55.977Z,8.50
2019-04-07T06:46:49.129Z,8.50
2019-04-07T06:49:31.638Z,8.60
2019-04-07T06:52:43.350Z,8.60
2019-04-07T06:55:35.272Z,8.60
2019-04-07T06:58:41.810Z,8.60
2019-04-07T07:01:38.519Z,8.70
2019-04-07T07:04:35.469Z,8.70
2019-04-07T07:07:34.637Z,8.80
2019-04-07T07:10:27.434Z,8.80
2019-04-07T07:13:32.298Z,8.80
2019-04-07T07:16:36.134Z,8.80
2019-04-07T07:19:35.861Z,8.80
2019-04-07T07:22:18.638Z,8.90
2019-04-07T07:25:01.324Z,9.00
2019-04-07T07:27:40.742Z,9.00
2019-04-07T07:30:19.346Z,9.10
2019-04-07T07:32:57.587Z,9.10
2019-04-07T07:35:33.486Z,9.10
2019-04-07T07:38:12.607Z,9.00
2019-04-07T07:40:49.346Z,9.00
2019-04-07T07:43:27.926Z,9.00
2019-04-07T07:46:03.721Z,9.00
2019-04-07T07:48:44.564Z,9.00
2019-04-07T07:51:18.593Z,9.10
2019-04-07T07:53:51.722Z,9.10
2019-04-07T07:56:27.129Z,9.20
2019-04-07T07:59:01.814Z,9.30
2019-04-07T08:01:46.221Z,9.30
2019-04-07T08:04:24.941Z,9.30
2019-04-07T08:06:52.268Z,9.30
2019-04-07T08:09:26.073Z,9.40
2019-04-07T08:12:03.463Z,9.40
2019-04-07T08:14:37.118Z,9.50
2019-04-07T08:17:09.483Z,9.50
2019-04-07T08:19:44.522Z,9.60
2019-04-07T08:22:30.665Z,9.60
2019-04-07T08:25:06.385Z,9.70
2019-04-07T08:27:45.586Z,9.70
2019-04-07T08:30:28.765Z,9.70
2019-04-07T08:33:05.158Z,9.80
2019-04-07T08:35:51.245Z,9.80
2019-04-07T08:38:32.295Z,9.90
2019-04-07T08:41:10.137Z,9.90
2019-04-07T08:43:43.523Z,10.00
2019-04-07T08:46:20.001Z,10.00
2019-04-07T08:49:03.101Z,10.00
2019-04-07T08:51:40.427Z,10.00
2019-04-07T08:54:21.841Z,10.10
2019-04-07T08:57:00.191Z,10.20
2019-04-07T08:59:39.908Z,10.30
2019-04-07T09:02:13.667Z,10.50
2019-04-07T09:04:52.416Z,10.80
2019-04-07T09:07:33.521Z,11.00
2019-04-07T09:10:12.666Z,11.20
2019-04-07T09:12:49.940Z,11.50
2019-04-07T09:15:33.844Z,11.70
2019-04-07T09:18:21.721Z,11.90
2019-04-07T09:21:19.934Z,12.20
2019-04-07T09:24:12.572Z,12.40
2019-04-07T09:27:04.386Z,12.50
2019-04-07T09:29:42.191Z,12.90
2019-04-07T09:32:54.664Z,13.10
2019-04-07T09:35:56.453Z,13.20
2019-04-07T09:38:52.528Z,13.50
2019-04-07T09:41:59.691Z,13.30
2019-04-07T09:45:10.806Z,13.30
2019-04-07T09:48:07.367Z,13.50
2019-04-07T09:51:06.382Z,13.90
2019-04-07T09:53:57.451Z,13.90
2019-04-07T09:56:50.893Z,13.80
2019-04-07T09:59:50.908Z,13.70
2019-04-07T10:02:35.776Z,13.80
2019-04-07T10:05:48.557Z,14.20
2019-04-07T10:08:47.803Z,14.40
2019-04-07T10:11:45.033Z,14.80
2019-04-07T10:14:28.382Z,15.70
2019-04-07T10:17:17.699Z,16.40
2019-04-07T10:20:14.360Z,16.20
2019-04-07T10:23:05.650Z,15.70
2019-04-07T10:26:01.248Z,15.30
2019-04-07T10:28:53.206Z,15.00
2019-04-07T10:31:49.883Z,14.90
2019-04-07T10:34:39.384Z,14.90
2019-04-07T10:37:41.526Z,14.90
2019-04-07T10:40:37.922Z,14.90
2019-04-07T10:43:42.531Z,14.70
2019-04-07T10:46:38.100Z,14.60
2019-04-07T10:49:45.334Z,14.70
2019-04-07T10:52:43.826Z,14.80
2019-04-07T10:55:38.345Z,14.60
2019-04-07T10:58:26.507Z,14.60
2019-04-07T11:01:13.408Z,14.60
2019-04-07T11:04:12.683Z,15.00
2019-04-07T11:07:20.485Z,15.20
2019-04-07T11:10:29.392Z,15.10
2019-04-07T11:13:15.793Z,15.10
2019-04-07T11:16:22.939Z,15.10
2019-04-07T11:19:12.981Z,15.00
2019-04-07T11:22:06.743Z,15.00
2019-04-07T11:25:21.708Z,15.10
2019-04-07T11:28:17.752Z,15.40
2019-04-07T11:31:19.566Z,15.40
2019-04-07T11:34:08.827Z,15.40
2019-04-07T11:37:09.746Z,15.50
2019-04-07T11:40:06.338Z,15.40
2019-04-07T11:42:53.410Z,15.60
2019-04-07T11:46:03.061Z,15.80
2019-04-07T11:48:53.691Z,15.70
2019-04-07T11:51:49.501Z,15.60
2019-04-07T11:54:43.764Z,15.50
2019-04-07T11:57:35.873Z,15.50
2019-04-07T12:00:39.810Z,15.50
2019-04-07T12:03:27.969Z,15.70
2019-04-07T12:06:28.425Z,15.90
2019-04-07T12:09:25.812Z,16.00
2019-04-07T12:12:24.522Z,16.00
2019-04-07T12:15:26.671Z,16.20
2019-04-07T12:18:14.929Z,16.50
2019-04-07T12:21:00.900Z,16.90
2019-04-07T12:24:03.254Z,17.00
2019-04-07T12:27:03.623Z,17.10
2019-04-07T12:29:48.706Z,17.00
2019-04-07T12:32:43.524Z,17.00
2019-04-07T12:35:50.934Z,17.30
2019-04-07T12:38:47.864Z,17.40
2019-04-07T12:41:40.120Z,17.40
2019-04-07T12:44:28.945Z,17.50
2019-04-07T12:47:25.689Z,17.30
2019-04-07T12:50:18.836Z,17.30
2019-04-07T12:53:12.378Z,17.30
2019-04-07T12:56:22.050Z,17.40
2019-04-07T12:59:08.956Z,17.40
2019-04-07T13:02:00.845Z,17.60
2019-04-07T13:04:53.510Z,17.60
2019-04-07T13:07:50.230Z,17.50
2019-04-07T13:10:46.110Z,17.30
2019-04-07T13:13:42.792Z,17.20
2019-04-07T13:16:47.285Z,17.10
2019-04-07T13:19:33.215Z,16.90
2019-04-07T13:22:34.449Z,16.70
2019-04-07T13:25:37.434Z,16.60
2019-04-07T13:28:35.901Z,16.40
2019-04-07T13:31:34.076Z,16.20
2019-04-07T13:34:32.785Z,16.20
2019-04-07T13:37:33.114Z,16.20
2019-04-07T13:40:46.967Z,16.30
2019-04-07T13:43:42.198Z,16.30
2019-04-07T13:46:41.106Z,16.40
2019-04-07T13:49:28.910Z,16.50
2019-04-07T13:52:20.784Z,16.60
2019-04-07T13:55:18.359Z,16.60
2019-04-07T13:58:13.904Z,16.50
2019-04-07T14:01:18.579Z,16.50
2019-04-07T14:04:21.709Z,16.60
2019-04-07T14:07:18.064Z,16.60
2019-04-07T14:10:14.479Z,16.60
2019-04-07T14:13:06.230Z,16.50
2019-04-07T14:16:08.416Z,16.40
2019-04-07T14:19:08.798Z,16.30
2019-04-07T14:22:08.970Z,16.10
2019-04-07T14:25:09.099Z,15.90
2019-04-07T14:28:08.910Z,15.80
2019-04-07T14:31:10.769Z,15.80
2019-04-07T14:34:20.679Z,15.80
2019-04-07T14:37:40.787Z,15.80
2019-04-07T14:40:21.250Z,15.70
2019-04-07T14:43:07.158Z,15.80
2019-04-07T14:45:59.425Z,15.80
2019-04-07T14:48:52.480Z,15.80
2019-04-07T14:51:49.196Z,15.80
2019-04-07T14:54:42.224Z,15.90
2019-04-07T14:57:34.066Z,15.80
2019-04-07T15:00:29.176Z,15.70
2019-04-07T15:03:02.091Z,15.70
2019-04-07T15:05:38.758Z,15.70
2019-04-07T15:08:32.957Z,15.50
2019-04-07T15:11:34.249Z,15.50
2019-04-07T15:14:13.357Z,15.30
2019-04-07T15:16:46.330Z,15.20
2019-04-07T15:19:23.385Z,15.10
2019-04-07T15:22:01.856Z,15.00
2019-04-07T15:24:42.785Z,14.90
2019-04-07T15:27:16.744Z,14.80
2019-04-07T15:29:50.400Z,14.80
2019-04-07T15:32:35.887Z,14.70
2019-04-07T15:35:18.652Z,14.70
2019-04-07T15:38:07.656Z,14.70
2019-04-07T15:40:53.228Z,14.70
2019-04-07T15:43:46.394Z,14.70
2019-04-07T15:46:25.624Z,14.70
2019-04-07T15:49:08.737Z,14.70
2019-04-07T15:51:52.760Z,14.60
2019-04-07T15:54:37.827Z,14.60
2019-04-07T15:57:13.227Z,14.40
2019-04-07T15:59:56.132Z,14.40
2019-04-07T16:02:31.773Z,14.30
2019-04-07T16:05:08.077Z,14.30
2019-04-07T16:07:42.098Z,14.30
2019-04-07T16:10:21.256Z,14.20
2019-04-07T16:12:59.319Z,14.20
2019-04-07T16:15:37.187Z,14.20
2019-04-07T16:18:10.859Z,14.30
2019-04-07T16:20:45.632Z,14.40
2019-04-07T16:23:25.085Z,14.40
2019-04-07T16:26:00.839Z,14.50
2019-04-07T16:28:46.862Z,14.60
2019-04-07T16:31:24.264Z,14.60
2019-04-07T16:33:59.033Z,14.50
2019-04-07T16:36:43.374Z,14.40
2019-04-07T16:39:21.105Z,14.20
2019-04-07T16:42:03.200Z,14.10
2019-04-07T16:44:36.245Z,14.10
2019-04-07T16:47:21.024Z,14.00
2019-04-07T16:49:52.349Z,13.90
2019-04-07T16:52:32.855Z,13.80
2019-04-07T16:55:09.438Z,13.80
2019-04-07T16:57:50.518Z,13.70
2019-04-07T17:00:25.906Z,13.70
2019-04-07T17:03:02.467Z,13.60
2019-04-07T17:05:41.503Z,13.50
2019-04-07T17:08:22.506Z,13.50
2019-04-07T17:11:07.606Z,13.40
2019-04-07T17:13:44.936Z,13.30
2019-04-07T17:16:24.676Z,13.20
2019-04-07T17:18:56.550Z,13.10
2019-04-07T17:21:33.080Z,13.00
2019-04-07T17:24:11.237Z,13.00
2019-04-07T17:26:47.543Z,12.90
2019-04-07T17:29:28.597Z,12.80
2019-04-07T17:32:08.891Z,12.80
2019-04-07T17:34:55.010Z,12.70
2019-04-07T17:37:38.078Z,12.70
2019-04-07T17:40:15.998Z,12.60
2019-04-07T17:42:53.980Z,12.60
2019-04-07T17:45:56.527Z,12.60
2019-04-07T17:48:57.125Z,12.60
2019-04-07T17:51:42.220Z,12.60
2019-04-07T17:54:46.413Z,12.50
2019-04-07T17:57:36.613Z,12.50
2019-04-07T18:00:24.357Z,12.40
2019-04-07T18:03:17.449Z,12.40
2019-04-07T18:06:16.895Z,12.30
2019-04-07T18:09:12.775Z,12.30
2019-04-07T18:12:02.293Z,12.30
2019-04-07T18:14:57.009Z,12.30
2019-04-07T18:17:49.749Z,12.20
2019-04-07T18:20:39.556Z,12.20
2019-04-07T18:23:34.674Z,12.10
2019-04-07T18:26:18.774Z,12.10
2019-04-07T18:29:29.139Z,12.10
2019-04-07T18:32:25.352Z,12.00
2019-04-07T18:35:09.781Z,12.00
2019-04-07T18:37:59.019Z,12.00
2019-04-07T18:41:01.028Z,12.00
2019-04-07T18:43:57.969Z,12.00
2019-04-07T18:46:35.697Z,11.90
2019-04-07T18:49:46.462Z,11.90
2019-04-07T18:52:43.110Z,11.80
2019-04-07T18:55:37.217Z,11.80
2019-04-07T18:58:18.234Z,11.80
2019-04-07T19:01:11.743Z,11.70
2019-04-07T19:04:21.535Z,11.70
2019-04-07T19:07:16.705Z,11.70
2019-04-07T19:10:16.608Z,11.60
2019-04-07T19:13:24.534Z,11.60
2019-04-07T19:16:27.694Z,11.50
2019-04-07T19:19:20.041Z,11.40
2019-04-07T19:22:07.634Z,11.30
2019-04-07T19:25:11.319Z,11.30
2019-04-07T19:28:04.672Z,11.20
2019-04-07T19:31:01.093Z,11.20
2019-04-07T19:34:01.166Z,11.10
2019-04-07T19:37:00.688Z,11.10
2019-04-07T19:39:53.536Z,11.10
2019-04-07T19:43:03.970Z,11.00
2019-04-07T19:46:01.383Z,11.00
2019-04-07T19:49:02.312Z,10.90
2019-04-07T19:52:06.597Z,10.90
2019-04-07T19:55:01.519Z,10.80
2019-04-07T19:58:03.943Z,10.80
2019-04-07T20:00:54.275Z,10.70
2019-04-07T20:03:43.522Z,10.60
2019-04-07T20:06:34.990Z,10.60
2019-04-07T20:09:47.586Z,10.60
2019-04-07T20:12:58.919Z,10.50
2019-04-07T20:15:49.452Z,10.50
2019-04-07T20:18:37.418Z,10.40
2019-04-07T20:21:36.578Z,10.40
2019-04-07T20:24:17.386Z,10.40
2019-04-07T20:26:58.810Z,10.30
2019-04-07T20:29:43.498Z,10.30
2019-04-07T20:32:35.238Z,10.30
2019-04-07T20:35:15.983Z,10.20
2019-04-07T20:38:04.694Z,10.20
2019-04-07T20:41:12.051Z,10.20
2019-04-07T20:44:05.469Z,10.10
2019-04-07T20:47:01.636Z,10.10
2019-04-07T20:50:00.917Z,10.00
2019-04-07T20:52:36.870Z,10.00
2019-04-07T20:55:23.781Z,9.90
2019-04-07T20:58:19.595Z,9.90
2019-04-07T21:01:04.169Z,9.80
2019-04-07T21:04:05.126Z,9.80
2019-04-07T21:06:48.119Z,9.70
2019-04-07T21:09:36.386Z,9.70
2019-04-07T21:12:25.250Z,9.60
2019-04-07T21:15:17.188Z,9.60
2019-04-07T21:17:58.328Z,9.50
2019-04-07T21:20:34.190Z,9.40
2019-04-07T21:23:19.930Z,9.40
2019-04-07T21:26:07.953Z,9.30
2019-04-07T21:28:48.340Z,9.30
2019-04-07T21:31:46.738Z,9.20
2019-04-07T21:34:47.220Z,9.20
2019-04-07T21:37:32.605Z,9.10
2019-04-07T21:40:29.444Z,9.00
2019-04-07T21:43:29.368Z,9.00
2019-04-07T21:46:24.811Z,8.90
2019-04-07T21:49:25.789Z,8.90
2019-04-07T21:52:02.677Z,8.80
2019-04-07T21:54:51.479Z,8.70
2019-04-07T21:57:38.186Z,8.70
2019-04-07T22:00:31.997Z,8.60
2019-04-07T22:03:31.063Z,8.60
2019-04-07T22:06:08.850Z,8.50
2019-04-07T22:08:48.013Z,8.50
2019-04-07T22:11:16.544Z,8.40
2019-04-07T22:13:45.234Z,8.40
2019-04-07T22:16:14.275Z,8.40
2019-04-07T22:18:44.943Z,8.30
2019-04-07T22:21:13.808Z,8.30
2019-04-07T22:23:42.429Z,8.20
2019-04-07T22:26:16.384Z,8.20
2019-04-07T22:28:41.676Z,8.20
2019-04-07T22:31:12.759Z,8.20
2019-04-07T22:33:42.518Z,8.10
2019-04-07T22:36:13.264Z,8.10
2019-04-07T22:38:41.405Z,8.10
2019-04-07T22:41:11.195Z,8.10
2019-04-07T22:43:39.584Z,8.00
2019-04-07T22:46:16.863Z,8.00
2019-04-07T22:48:39.055Z,7.90
2019-04-07T22:51:12.057Z,7.90
2019-04-07T22:53:37.914Z,7.90
2019-04-07T22:56:07.827Z,7.80
2019-04-07T22:58:36.536Z,7.80
2019-04-07T23:01:05.100Z,7.80
2019-04-07T23:03:34.482Z,7.70
2019-04-07T23:06:03.189Z,7.70
2019-04-07T23:08:32.792Z,7.70
2019-04-07T23:11:02.167Z,7.60
2019-04-07T23:13:32.138Z,7.60
2019-04-07T23:16:10.045Z,7.60
2019-04-07T23:18:31.692Z,7.50
2019-04-07T23:21:01.109Z,7.50
2019-04-07T23:23:30.876Z,7.50
2019-04-07T23:25:59.946Z,7.50
2019-04-07T23:28:28.518Z,7.50
2019-04-07T23:30:57.196Z,7.50
2019-04-07T23:33:25.646Z,7.40
2019-04-07T23:35:55.450Z,7.40
2019-04-07T23:38:24.279Z,7.40
2019-04-07T23:40:53.535Z,7.40
2019-04-07T23:43:22.272Z,7.30
2019-04-07T23:45:51.725Z,7.30
2019-04-07T23:48:20.565Z,7.20
2019-04-07T23:50:49.844Z,7.10
2019-04-07T23:53:54.728Z,7.10
2019-04-07T23:56:24.071Z,7.00
2019-04-07T23:58:54.126Z,7.00
